sensor_id;sensor_type;location;lat;lon;timestamp;P1;durP1;ratioP1;P2;durP2;ratioP2
50231;SDS011;36118;56.468;84.952;2022-10-31T00:02:50;8.77;;;5.47;;
50231;SDS011;36118;56.468;84.952;2022-10-31T00:07:53;9.27;;;5.22;;
50231;SDS011;36118;56.468;84.952;2022-10-31T00:12:55;13.20;;;4.55;;
50231;SDS011;36118;56.468;84.952;2022-10-31T00:17:58;12.68;;;5.15;;
50231;SDS011;36118;56.468;84.952;2022-10-31T00:23:02;15.25;;;5.30;;
50231;SDS011;36118;56.468;84.952;2022-10-31T00:28:06;6.63;;;2.87;;
50231;SDS011;36118;56.468;84.952;2022-10-31T00:33:09;12.07;;;4.60;;
50231;SDS011;36118;56.468;84.952;2022-10-31T00:38:12;15.50;;;6.15;;
50231;SDS011;36118;56.468;84.952;2022-10-31T00:43:15;20.05;;;6.50;;
50231;SDS011;36118;56.468;84.952;2022-10-31T00:48:17;18.83;;;6.53;;
50231;SDS011;36118;56.468;84.952;2022-10-31T00:58:24;14.10;;;4.65;;
50231;SDS011;36118;56.468;84.952;2022-10-31T01:03:28;14.38;;;5.32;;
50231;SDS011;36118;56.468;84.952;2022-10-31T01:08:36;13.80;;;5.80;;
50231;SDS011;36118;56.468;84.952;2022-10-31T01:13:39;10.68;;;4.20;;
50231;SDS011;36118;56.468;84.952;2022-10-31T01:18:42;11.20;;;4.90;;
50231;SDS011;36118;56.468;84.952;2022-10-31T01:23:46;5.88;;;1.85;;
50231;SDS011;36118;56.468;84.952;2022-10-31T01:28:52;17.17;;;6.03;;
50231;SDS011;36118;56.468;84.952;2022-10-31T01:33:57;13.52;;;5.28;;
50231;SDS011;36118;56.468;84.952;2022-10-31T01:39:02;13.13;;;5.60;;
50231;SDS011;36118;56.468;84.952;2022-10-31T01:54:37;17.85;;;6.75;;
50231;SDS011;36118;56.468;84.952;2022-10-31T01:59:43;19.83;;;6.70;;
50231;SDS011;36118;56.468;84.952;2022-10-31T02:04:50;22.50;;;7.90;;
50231;SDS011;36118;56.468;84.952;2022-10-31T02:09:53;10.90;;;5.35;;
50231;SDS011;36118;56.468;84.952;2022-10-31T02:25:37;23.42;;;7.13;;
50231;SDS011;36118;56.468;84.952;2022-10-31T02:47:22;23.58;;;7.32;;
50231;SDS011;36118;56.468;84.952;2022-10-31T02:52:29;18.08;;;7.78;;
50231;SDS011;36118;56.468;84.952;2022-10-31T02:57:37;16.58;;;6.40;;
50231;SDS011;36118;56.468;84.952;2022-10-31T03:08:03;12.57;;;5.97;;
50231;SDS011;36118;56.468;84.952;2022-10-31T03:18:48;14.70;;;6.43;;
50231;SDS011;36118;56.468;84.952;2022-10-31T03:24:03;14.55;;;6.97;;
50231;SDS011;36118;56.468;84.952;2022-10-31T03:29:10;15.57;;;8.13;;
50231;SDS011;36118;56.468;84.952;2022-10-31T03:34:17;18.92;;;8.27;;
50231;SDS011;36118;56.468;84.952;2022-10-31T03:39:22;16.73;;;7.25;;
50231;SDS011;36118;56.468;84.952;2022-10-31T03:44:26;15.00;;;7.50;;
50231;SDS011;36118;56.468;84.952;2022-10-31T03:49:35;18.88;;;7.63;;
50231;SDS011;36118;56.468;84.952;2022-10-31T03:54:40;17.80;;;7.15;;
50231;SDS011;36118;56.468;84.952;2022-10-31T04:05:20;19.58;;;7.55;;
50231;SDS011;36118;56.468;84.952;2022-10-31T04:10:25;16.58;;;7.32;;
50231;SDS011;36118;56.468;84.952;2022-10-31T04:15:35;26.48;;;8.73;;
50231;SDS011;36118;56.468;84.952;2022-10-31T04:20:39;15.27;;;7.17;;
50231;SDS011;36118;56.468;84.952;2022-10-31T04:25:45;16.77;;;6.60;;
50231;SDS011;36118;56.468;84.952;2022-10-31T04:30:48;17.95;;;7.57;;
50231;SDS011;36118;56.468;84.952;2022-10-31T04:35:51;15.30;;;8.00;;
50231;SDS011;36118;56.468;84.952;2022-10-31T04:40:54;14.13;;;7.65;;
50231;SDS011;36118;56.468;84.952;2022-10-31T04:46:14;12.13;;;5.95;;
50231;SDS011;36118;56.468;84.952;2022-10-31T04:51:17;16.90;;;7.50;;
50231;SDS011;36118;56.468;84.952;2022-10-31T04:56:20;15.90;;;6.20;;
50231;SDS011;36118;56.468;84.952;2022-10-31T05:01:29;16.90;;;7.32;;
50231;SDS011;36118;56.468;84.952;2022-10-31T05:06:34;17.45;;;6.80;;
50231;SDS011;36118;56.468;84.952;2022-10-31T05:11:36;25.67;;;7.07;;
50231;SDS011;36118;56.468;84.952;2022-10-31T05:16:56;14.75;;;7.63;;
50231;SDS011;36118;56.468;84.952;2022-10-31T05:22:34;21.48;;;8.02;;
50231;SDS011;36118;56.468;84.952;2022-10-31T05:27:39;20.75;;;7.13;;
50231;SDS011;36118;56.468;84.952;2022-10-31T05:32:54;25.08;;;7.68;;
50231;SDS011;36118;56.468;84.952;2022-10-31T05:38:21;18.98;;;6.20;;
50231;SDS011;36118;56.468;84.952;2022-10-31T05:43:24;16.00;;;7.28;;
50231;SDS011;36118;56.468;84.952;2022-10-31T05:48:28;24.55;;;8.38;;
50231;SDS011;36118;56.468;84.952;2022-10-31T05:53:50;18.63;;;7.78;;
50231;SDS011;36118;56.468;84.952;2022-10-31T05:58:54;19.10;;;7.47;;
50231;SDS011;36118;56.468;84.952;2022-10-31T06:03:57;19.63;;;8.80;;
50231;SDS011;36118;56.468;84.952;2022-10-31T06:09:00;22.60;;;8.05;;
50231;SDS011;36118;56.468;84.952;2022-10-31T06:14:06;21.88;;;7.80;;
50231;SDS011;36118;56.468;84.952;2022-10-31T06:19:24;26.33;;;9.20;;
50231;SDS011;36118;56.468;84.952;2022-10-31T06:24:28;27.98;;;8.85;;
50231;SDS011;36118;56.468;84.952;2022-10-31T06:29:54;19.92;;;7.57;;
50231;SDS011;36118;56.468;84.952;2022-10-31T06:35:09;13.95;;;5.90;;
50231;SDS011;36118;56.468;84.952;2022-10-31T06:40:14;17.33;;;6.90;;
50231;SDS011;36118;56.468;84.952;2022-10-31T06:45:35;14.25;;;6.15;;
50231;SDS011;36118;56.468;84.952;2022-10-31T06:50:58;19.05;;;6.50;;
50231;SDS011;36118;56.468;84.952;2022-10-31T06:56:02;20.03;;;7.40;;
50231;SDS011;36118;56.468;84.952;2022-10-31T07:01:09;17.73;;;7.13;;
50231;SDS011;36118;56.468;84.952;2022-10-31T07:06:13;20.10;;;7.25;;
50231;SDS011;36118;56.468;84.952;2022-10-31T07:11:16;21.80;;;7.50;;
50231;SDS011;36118;56.468;84.952;2022-10-31T07:16:19;18.88;;;6.60;;
50231;SDS011;36118;56.468;84.952;2022-10-31T07:21:22;21.38;;;6.80;;
50231;SDS011;36118;56.468;84.952;2022-10-31T07:26:26;14.32;;;6.75;;
50231;SDS011;36118;56.468;84.952;2022-10-31T07:31:30;17.70;;;6.60;;
50231;SDS011;36118;56.468;84.952;2022-10-31T07:36:38;19.15;;;7.75;;
50231;SDS011;36118;56.468;84.952;2022-10-31T07:41:41;16.05;;;6.78;;
50231;SDS011;36118;56.468;84.952;2022-10-31T07:46:44;13.30;;;6.15;;
50231;SDS011;36118;56.468;84.952;2022-10-31T07:52:05;14.93;;;6.07;;
50231;SDS011;36118;56.468;84.952;2022-10-31T07:57:26;17.00;;;6.82;;
50231;SDS011;36118;56.468;84.952;2022-10-31T08:02:35;24.70;;;7.75;;
50231;SDS011;36118;56.468;84.952;2022-10-31T08:08:07;25.90;;;8.00;;
50231;SDS011;36118;56.468;84.952;2022-10-31T08:13:12;17.83;;;6.95;;
50231;SDS011;36118;56.468;84.952;2022-10-31T08:18:19;25.38;;;7.63;;
50231;SDS011;36118;56.468;84.952;2022-10-31T08:23:24;14.93;;;6.05;;
50231;SDS011;36118;56.468;84.952;2022-10-31T08:28:29;21.63;;;6.68;;
50231;SDS011;36118;56.468;84.952;2022-10-31T08:33:31;23.13;;;7.57;;
50231;SDS011;36118;56.468;84.952;2022-10-31T08:38:52;31.88;;;8.05;;
50231;SDS011;36118;56.468;84.952;2022-10-31T08:44:02;27.73;;;7.85;;
50231;SDS011;36118;56.468;84.952;2022-10-31T08:49:06;20.10;;;5.55;;
50231;SDS011;36118;56.468;84.952;2022-10-31T08:54:09;17.73;;;6.53;;
50231;SDS011;36118;56.468;84.952;2022-10-31T08:59:23;11.52;;;4.93;;
50231;SDS011;36118;56.468;84.952;2022-10-31T09:04:49;14.40;;;5.53;;
50231;SDS011;36118;56.468;84.952;2022-10-31T09:09:52;14.48;;;7.70;;
50231;SDS011;36118;56.468;84.952;2022-10-31T09:14:55;17.17;;;5.75;;
50231;SDS011;36118;56.468;84.952;2022-10-31T09:20:06;15.23;;;5.20;;
50231;SDS011;36118;56.468;84.952;2022-10-31T09:25:14;14.18;;;5.07;;
50231;SDS011;36118;56.468;84.952;2022-10-31T09:30:23;12.55;;;4.88;;
50231;SDS011;36118;56.468;84.952;2022-10-31T09:35:26;14.27;;;5.07;;
50231;SDS011;36118;56.468;84.952;2022-10-31T09:40:31;12.68;;;5.85;;
50231;SDS011;36118;56.468;84.952;2022-10-31T09:57:01;9.70;;;4.40;;
50231;SDS011;36118;56.468;84.952;2022-10-31T10:34:53;12.90;;;4.53;;
50231;SDS011;36118;56.468;84.952;2022-10-31T10:40:06;10.00;;;4.65;;
50231;SDS011;36118;56.468;84.952;2022-10-31T10:45:15;15.13;;;5.20;;
50231;SDS011;36118;56.468;84.952;2022-10-31T10:50:43;15.95;;;5.53;;
50231;SDS011;36118;56.468;84.952;2022-10-31T11:01:10;8.50;;;4.53;;
50231;SDS011;36118;56.468;84.952;2022-10-31T11:06:23;12.35;;;5.72;;
50231;SDS011;36118;56.468;84.952;2022-10-31T11:11:30;12.02;;;6.88;;
50231;SDS011;36118;56.468;84.952;2022-10-31T11:16:38;13.20;;;4.83;;
50231;SDS011;36118;56.468;84.952;2022-10-31T11:21:42;12.40;;;5.50;;
50231;SDS011;36118;56.468;84.952;2022-10-31T11:27:16;13.35;;;6.13;;
50231;SDS011;36118;56.468;84.952;2022-10-31T11:32:19;10.52;;;6.20;;
50231;SDS011;36118;56.468;84.952;2022-10-31T11:37:24;12.82;;;5.70;;
50231;SDS011;36118;56.468;84.952;2022-10-31T11:42:40;14.05;;;6.25;;
50231;SDS011;36118;56.468;84.952;2022-10-31T11:47:47;15.40;;;6.80;;
50231;SDS011;36118;56.468;84.952;2022-10-31T11:52:56;17.63;;;6.93;;
50231;SDS011;36118;56.468;84.952;2022-10-31T11:57:59;18.98;;;9.13;;
50231;SDS011;36118;56.468;84.952;2022-10-31T12:08:17;12.32;;;6.22;;
50231;SDS011;36118;56.468;84.952;2022-10-31T12:29:27;18.58;;;6.70;;
50231;SDS011;36118;56.468;84.952;2022-10-31T12:56:13;18.15;;;6.60;;
50231;SDS011;36118;56.468;84.952;2022-10-31T13:01:37;12.98;;;6.47;;
50231;SDS011;36118;56.468;84.952;2022-10-31T13:06:49;14.88;;;6.80;;
50231;SDS011;36118;56.468;84.952;2022-10-31T13:12:04;17.48;;;6.93;;
50231;SDS011;36118;56.468;84.952;2022-10-31T13:17:18;13.45;;;6.72;;
50231;SDS011;36118;56.468;84.952;2022-10-31T13:22:42;15.10;;;6.00;;
50231;SDS011;36118;56.468;84.952;2022-10-31T13:27:55;18.15;;;7.75;;
50231;SDS011;36118;56.468;84.952;2022-10-31T13:33:03;14.43;;;6.22;;
50231;SDS011;36118;56.468;84.952;2022-10-31T13:38:37;23.00;;;6.85;;
50231;SDS011;36118;56.468;84.952;2022-10-31T13:54:32;13.98;;;6.00;;
50231;SDS011;36118;56.468;84.952;2022-10-31T13:59:36;13.35;;;6.95;;
50231;SDS011;36118;56.468;84.952;2022-10-31T14:04:53;15.98;;;6.63;;
50231;SDS011;36118;56.468;84.952;2022-10-31T14:10:35;13.57;;;7.28;;
50231;SDS011;36118;56.468;84.952;2022-10-31T14:15:32;11.37;;;6.20;;
50231;SDS011;36118;56.468;84.952;2022-10-31T14:20:43;15.32;;;6.60;;
50231;SDS011;36118;56.468;84.952;2022-10-31T14:25:46;13.35;;;6.78;;
50231;SDS011;36118;56.468;84.952;2022-10-31T14:30:53;11.30;;;6.70;;
50231;SDS011;36118;56.468;84.952;2022-10-31T14:41:16;15.07;;;6.50;;
50231;SDS011;36118;56.468;84.952;2022-10-31T14:46:56;19.25;;;7.35;;
50231;SDS011;36118;56.468;84.952;2022-10-31T14:52:01;18.45;;;7.32;;
50231;SDS011;36118;56.468;84.952;2022-10-31T14:57:05;13.93;;;7.18;;
50231;SDS011;36118;56.468;84.952;2022-10-31T15:02:14;12.30;;;6.60;;
50231;SDS011;36118;56.468;84.952;2022-10-31T15:07:29;19.13;;;8.60;;
50231;SDS011;36118;56.468;84.952;2022-10-31T15:12:38;17.88;;;8.38;;
50231;SDS011;36118;56.468;84.952;2022-10-31T15:17:44;20.70;;;7.93;;
50231;SDS011;36118;56.468;84.952;2022-10-31T15:22:51;24.92;;;8.45;;
50231;SDS011;36118;56.468;84.952;2022-10-31T15:27:54;18.50;;;8.48;;
50231;SDS011;36118;56.468;84.952;2022-10-31T15:32:57;16.02;;;7.93;;
50231;SDS011;36118;56.468;84.952;2022-10-31T15:38:00;17.52;;;8.05;;
50231;SDS011;36118;56.468;84.952;2022-10-31T15:43:04;14.20;;;8.05;;
50231;SDS011;36118;56.468;84.952;2022-10-31T15:48:16;13.75;;;7.47;;
50231;SDS011;36118;56.468;84.952;2022-10-31T15:53:24;17.33;;;7.82;;
50231;SDS011;36118;56.468;84.952;2022-10-31T15:58:28;15.88;;;7.85;;
50231;SDS011;36118;56.468;84.952;2022-10-31T16:03:33;15.27;;;7.20;;
50231;SDS011;36118;56.468;84.952;2022-10-31T16:08:36;15.10;;;8.00;;
50231;SDS011;36118;56.468;84.952;2022-10-31T16:13:56;14.20;;;7.70;;
50231;SDS011;36118;56.468;84.952;2022-10-31T16:19:01;18.10;;;7.80;;
50231;SDS011;36118;56.468;84.952;2022-10-31T16:24:12;14.70;;;8.20;;
50231;SDS011;36118;56.468;84.952;2022-10-31T16:29:41;14.18;;;8.02;;
50231;SDS011;36118;56.468;84.952;2022-10-31T16:34:45;15.20;;;8.68;;
50231;SDS011;36118;56.468;84.952;2022-10-31T16:39:48;16.73;;;8.38;;
50231;SDS011;36118;56.468;84.952;2022-10-31T16:44:50;17.00;;;8.93;;
50231;SDS011;36118;56.468;84.952;2022-10-31T16:49:53;18.67;;;10.07;;
50231;SDS011;36118;56.468;84.952;2022-10-31T16:54:56;15.98;;;8.63;;
50231;SDS011;36118;56.468;84.952;2022-10-31T16:59:58;13.30;;;7.90;;
50231;SDS011;36118;56.468;84.952;2022-10-31T17:05:04;18.33;;;9.02;;
50231;SDS011;36118;56.468;84.952;2022-10-31T17:10:07;20.42;;;9.15;;
50231;SDS011;36118;56.468;84.952;2022-10-31T17:15:14;21.10;;;10.18;;
50231;SDS011;36118;56.468;84.952;2022-10-31T17:20:28;21.17;;;9.73;;
50231;SDS011;36118;56.468;84.952;2022-10-31T17:25:32;19.30;;;9.38;;
50231;SDS011;36118;56.468;84.952;2022-10-31T17:30:34;21.08;;;9.18;;
50231;SDS011;36118;56.468;84.952;2022-10-31T17:35:38;21.42;;;9.18;;
50231;SDS011;36118;56.468;84.952;2022-10-31T17:40:41;15.10;;;8.43;;
50231;SDS011;36118;56.468;84.952;2022-10-31T17:45:43;21.63;;;9.60;;
50231;SDS011;36118;56.468;84.952;2022-10-31T17:50:46;18.08;;;8.80;;
50231;SDS011;36118;56.468;84.952;2022-10-31T17:55:49;19.45;;;9.30;;
50231;SDS011;36118;56.468;84.952;2022-10-31T18:00:52;16.45;;;8.77;;
50231;SDS011;36118;56.468;84.952;2022-10-31T18:05:56;15.73;;;8.48;;
50231;SDS011;36118;56.468;84.952;2022-10-31T18:11:04;19.30;;;9.90;;
50231;SDS011;36118;56.468;84.952;2022-10-31T18:16:11;18.00;;;9.77;;
50231;SDS011;36118;56.468;84.952;2022-10-31T18:21:15;19.17;;;9.80;;
50231;SDS011;36118;56.468;84.952;2022-10-31T18:26:19;18.93;;;9.30;;
50231;SDS011;36118;56.468;84.952;2022-10-31T18:31:22;19.95;;;8.73;;
50231;SDS011;36118;56.468;84.952;2022-10-31T18:36:25;17.50;;;9.18;;
50231;SDS011;36118;56.468;84.952;2022-10-31T18:41:28;17.73;;;9.15;;
50231;SDS011;36118;56.468;84.952;2022-10-31T18:46:31;15.07;;;8.75;;
50231;SDS011;36118;56.468;84.952;2022-10-31T18:51:34;17.80;;;8.80;;
50231;SDS011;36118;56.468;84.952;2022-10-31T18:56:37;22.20;;;8.60;;
50231;SDS011;36118;56.468;84.952;2022-10-31T19:01:39;15.70;;;8.88;;
50231;SDS011;36118;56.468;84.952;2022-10-31T19:06:42;19.63;;;8.60;;
50231;SDS011;36118;56.468;84.952;2022-10-31T19:11:45;17.33;;;8.85;;
50231;SDS011;36118;56.468;84.952;2022-10-31T19:16:48;17.23;;;9.00;;
50231;SDS011;36118;56.468;84.952;2022-10-31T19:21:53;19.77;;;10.45;;
50231;SDS011;36118;56.468;84.952;2022-10-31T19:26:57;21.90;;;11.70;;
50231;SDS011;36118;56.468;84.952;2022-10-31T19:37:04;20.42;;;11.20;;
50231;SDS011;36118;56.468;84.952;2022-10-31T19:42:07;19.45;;;9.30;;
50231;SDS011;36118;56.468;84.952;2022-10-31T19:47:09;22.40;;;10.77;;
50231;SDS011;36118;56.468;84.952;2022-10-31T19:52:12;19.85;;;9.13;;
50231;SDS011;36118;56.468;84.952;2022-10-31T19:57:15;17.50;;;9.30;;
50231;SDS011;36118;56.468;84.952;2022-10-31T20:02:19;19.70;;;9.93;;
50231;SDS011;36118;56.468;84.952;2022-10-31T20:07:22;18.67;;;9.40;;
50231;SDS011;36118;56.468;84.952;2022-10-31T20:12:24;17.25;;;9.73;;
50231;SDS011;36118;56.468;84.952;2022-10-31T20:17:27;20.60;;;9.65;;
50231;SDS011;36118;56.468;84.952;2022-10-31T20:22:30;20.00;;;10.15;;
50231;SDS011;36118;56.468;84.952;2022-10-31T20:27:33;18.17;;;9.07;;
50231;SDS011;36118;56.468;84.952;2022-10-31T20:32:35;20.50;;;9.80;;
50231;SDS011;36118;56.468;84.952;2022-10-31T20:37:38;24.58;;;9.88;;
50231;SDS011;36118;56.468;84.952;2022-10-31T20:42:41;19.52;;;10.00;;
50231;SDS011;36118;56.468;84.952;2022-10-31T20:47:43;28.42;;;9.82;;
50231;SDS011;36118;56.468;84.952;2022-10-31T20:52:46;19.02;;;9.30;;
50231;SDS011;36118;56.468;84.952;2022-10-31T20:57:49;25.33;;;9.65;;
50231;SDS011;36118;56.468;84.952;2022-10-31T21:02:51;23.45;;;10.55;;
50231;SDS011;36118;56.468;84.952;2022-10-31T21:07:54;16.92;;;9.32;;
50231;SDS011;36118;56.468;84.952;2022-10-31T21:12:57;20.38;;;9.73;;
50231;SDS011;36118;56.468;84.952;2022-10-31T21:18:00;21.08;;;9.95;;
50231;SDS011;36118;56.468;84.952;2022-10-31T21:23:03;21.77;;;10.27;;
50231;SDS011;36118;56.468;84.952;2022-10-31T21:28:06;17.48;;;9.02;;
50231;SDS011;36118;56.468;84.952;2022-10-31T21:33:12;17.30;;;9.50;;
50231;SDS011;36118;56.468;84.952;2022-10-31T21:38:15;23.80;;;10.02;;
50231;SDS011;36118;56.468;84.952;2022-10-31T21:43:18;20.33;;;10.05;;
50231;SDS011;36118;56.468;84.952;2022-10-31T21:48:21;21.77;;;9.43;;
50231;SDS011;36118;56.468;84.952;2022-10-31T21:53:23;20.08;;;9.90;;
50231;SDS011;36118;56.468;84.952;2022-10-31T21:58:45;40.83;;;18.08;;
50231;SDS011;36118;56.468;84.952;2022-10-31T22:03:47;46.70;;;23.25;;
50231;SDS011;36118;56.468;84.952;2022-10-31T22:08:50;42.53;;;21.52;;
50231;SDS011;36118;56.468;84.952;2022-10-31T22:13:53;51.53;;;25.95;;
50231;SDS011;36118;56.468;84.952;2022-10-31T22:18:57;57.83;;;28.05;;
50231;SDS011;36118;56.468;84.952;2022-10-31T22:24:01;58.38;;;29.77;;
50231;SDS011;36118;56.468;84.952;2022-10-31T22:29:12;60.60;;;29.85;;
50231;SDS011;36118;56.468;84.952;2022-10-31T22:34:16;69.60;;;32.95;;
50231;SDS011;36118;56.468;84.952;2022-10-31T22:39:20;79.55;;;36.28;;
50231;SDS011;36118;56.468;84.952;2022-10-31T22:44:22;74.63;;;35.53;;
50231;SDS011;36118;56.468;84.952;2022-10-31T22:49:25;66.43;;;32.10;;
50231;SDS011;36118;56.468;84.952;2022-10-31T22:54:28;60.00;;;28.40;;
50231;SDS011;36118;56.468;84.952;2022-10-31T22:59:32;51.60;;;25.37;;
50231;SDS011;36118;56.468;84.952;2022-10-31T23:04:35;48.60;;;24.23;;
50231;SDS011;36118;56.468;84.952;2022-10-31T23:09:37;47.00;;;24.60;;
50231;SDS011;36118;56.468;84.952;2022-10-31T23:14:40;52.92;;;25.90;;
50231;SDS011;36118;56.468;84.952;2022-10-31T23:19:43;60.72;;;28.23;;
50231;SDS011;36118;56.468;84.952;2022-10-31T23:24:46;56.50;;;28.05;;
50231;SDS011;36118;56.468;84.952;2022-10-31T23:29:53;60.65;;;29.48;;
50231;SDS011;36118;56.468;84.952;2022-10-31T23:34:58;54.90;;;25.40;;
50231;SDS011;36118;56.468;84.952;2022-10-31T23:40:04;47.80;;;25.00;;
50231;SDS011;36118;56.468;84.952;2022-10-31T23:45:07;44.63;;;23.03;;
50231;SDS011;36118;56.468;84.952;2022-10-31T23:50:10;49.25;;;23.75;;
50231;SDS011;36118;56.468;84.952;2022-10-31T23:55:13;53.92;;;25.05;;
